sensor_id;sensor_type;location;lat;lon;timestamp;temperature;humidity
12771;DHT22;6449;47.666;9.160;2022-12-07T00:04:08;2.50;99.90
12771;DHT22;6449;47.666;9.160;2022-12-07T00:09:06;2.50;99.90
12771;DHT22;6449;47.666;9.160;2022-12-07T00:14:02;2.50;99.90
12771;DHT22;6449;47.666;9.160;2022-12-07T00:18:58;2.50;99.90
12771;DHT22;6449;47.666;9.160;2022-12-07T00:23:54;2.40;99.90
12771;DHT22;6449;47.666;9.160;2022-12-07T00:28:50;2.40;99.90
12771;DHT22;6449;47.666;9.160;2022-12-07T00:33:45;2.40;99.90
12771;DHT22;6449;47.666;9.160;2022-12-07T00:38:39;2.40;99.90
12771;DHT22;6449;47.666;9.160;2022-12-07T00:43:34;2.50;99.90
12771;DHT22;6449;47.666;9.160;2022-12-07T00:48:28;2.40;99.90
12771;DHT22;6449;47.666;9.160;2022-12-07T00:53:21;2.50;99.90
12771;DHT22;6449;47.666;9.160;2022-12-07T00:58:15;2.50;99.90
12771;DHT22;6449;47.666;9.160;2022-12-07T01:03:11;2.50;99.90
12771;DHT22;6449;47.666;9.160;2022-12-07T01:08:08;2.60;99.90
12771;DHT22;6449;47.666;9.160;2022-12-07T01:13:01;2.70;99.90
12771;DHT22;6449;47.666;9.160;2022-12-07T01:17:55;2.70;99.90
12771;DHT22;6449;47.666;9.160;2022-12-07T01:22:49;2.70;99.90
12771;DHT22;6449;47.666;9.160;2022-12-07T01:27:43;2.70;99.90
12771;DHT22;6449;47.666;9.160;2022-12-07T01:32:36;2.80;99.90
12771;DHT22;6449;47.666;9.160;2022-12-07T01:37:34;2.70;99.90
12771;DHT22;6449;47.666;9.160;2022-12-07T01:42:30;2.60;99.90
12771;DHT22;6449;47.666;9.160;2022-12-07T01:47:23;2.70;99.90
12771;DHT22;6449;47.666;9.160;2022-12-07T01:52:21;2.80;99.90
12771;DHT22;6449;47.666;9.160;2022-12-07T01:57:18;2.80;99.90
12771;DHT22;6449;47.666;9.160;2022-12-07T02:02:18;2.80;99.90
12771;DHT22;6449;47.666;9.160;2022-12-07T02:07:15;2.60;99.90
12771;DHT22;6449;47.666;9.160;2022-12-07T02:12:08;2.60;99.90
12771;DHT22;6449;47.666;9.160;2022-12-07T02:17:08;2.70;99.90
12771;DHT22;6449;47.666;9.160;2022-12-07T02:22:24;2.70;99.90
12771;DHT22;6449;47.666;9.160;2022-12-07T02:27:45;2.70;99.90
12771;DHT22;6449;47.666;9.160;2022-12-07T02:32:46;2.70;99.90
12771;DHT22;6449;47.666;9.160;2022-12-07T02:37:57;2.70;99.90
12771;DHT22;6449;47.666;9.160;2022-12-07T02:42:58;2.70;99.90
12771;DHT22;6449;47.666;9.160;2022-12-07T02:47:59;2.80;99.90
12771;DHT22;6449;47.666;9.160;2022-12-07T02:52:55;2.70;99.90
12771;DHT22;6449;47.666;9.160;2022-12-07T02:58:06;2.70;99.90
12771;DHT22;6449;47.666;9.160;2022-12-07T03:03:14;2.80;99.90
12771;DHT22;6449;47.666;9.160;2022-12-07T03:08:13;2.80;99.90
12771;DHT22;6449;47.666;9.160;2022-12-07T03:13:19;2.80;99.90
12771;DHT22;6449;47.666;9.160;2022-12-07T03:18:20;2.80;99.90
12771;DHT22;6449;47.666;9.160;2022-12-07T03:23:17;2.80;99.90
12771;DHT22;6449;47.666;9.160;2022-12-07T03:28:14;2.80;99.90
12771;DHT22;6449;47.666;9.160;2022-12-07T03:33:13;2.90;99.90
12771;DHT22;6449;47.666;9.160;2022-12-07T03:38:18;2.80;99.90
12771;DHT22;6449;47.666;9.160;2022-12-07T03:43:14;2.80;99.90
12771;DHT22;6449;47.666;9.160;2022-12-07T03:48:15;2.70;99.90
12771;DHT22;6449;47.666;9.160;2022-12-07T03:53:20;2.70;99.90
12771;DHT22;6449;47.666;9.160;2022-12-07T03:58:19;2.60;99.90
12771;DHT22;6449;47.666;9.160;2022-12-07T04:03:15;2.60;99.90
12771;DHT22;6449;47.666;9.160;2022-12-07T04:08:09;2.60;99.90
12771;DHT22;6449;47.666;9.160;2022-12-07T04:13:07;2.70;99.90
12771;DHT22;6449;47.666;9.160;2022-12-07T04:18:01;2.70;99.90
12771;DHT22;6449;47.666;9.160;2022-12-07T04:22:54;2.60;99.90
12771;DHT22;6449;47.666;9.160;2022-12-07T04:27:48;2.70;99.90
12771;DHT22;6449;47.666;9.160;2022-12-07T04:32:43;2.80;99.90
12771;DHT22;6449;47.666;9.160;2022-12-07T04:37:36;2.70;99.90
12771;DHT22;6449;47.666;9.160;2022-12-07T04:42:30;2.60;99.90
12771;DHT22;6449;47.666;9.160;2022-12-07T04:47:24;2.60;99.90
12771;DHT22;6449;47.666;9.160;2022-12-07T04:52:19;2.60;99.90
12771;DHT22;6449;47.666;9.160;2022-12-07T04:57:12;2.70;99.90
12771;DHT22;6449;47.666;9.160;2022-12-07T05:02:05;2.70;99.90
12771;DHT22;6449;47.666;9.160;2022-12-07T05:06:59;2.60;99.90
12771;DHT22;6449;47.666;9.160;2022-12-07T05:11:54;2.50;99.90
12771;DHT22;6449;47.666;9.160;2022-12-07T05:16:49;2.40;99.90
12771;DHT22;6449;47.666;9.160;2022-12-07T05:21:45;2.40;99.90
12771;DHT22;6449;47.666;9.160;2022-12-07T05:26:39;2.50;99.90
12771;DHT22;6449;47.666;9.160;2022-12-07T05:31:34;2.50;99.90
12771;DHT22;6449;47.666;9.160;2022-12-07T05:36:27;2.50;99.90
12771;DHT22;6449;47.666;9.160;2022-12-07T05:41:22;2.50;99.90
12771;DHT22;6449;47.666;9.160;2022-12-07T05:46:35;2.60;99.90
12771;DHT22;6449;47.666;9.160;2022-12-07T05:51:28;2.70;99.90
12771;DHT22;6449;47.666;9.160;2022-12-07T05:56:22;2.70;99.90
12771;DHT22;6449;47.666;9.160;2022-12-07T06:01:16;2.70;99.90
12771;DHT22;6449;47.666;9.160;2022-12-07T06:06:10;2.70;99.90
12771;DHT22;6449;47.666;9.160;2022-12-07T06:11:04;2.70;99.90
12771;DHT22;6449;47.666;9.160;2022-12-07T06:16:16;2.60;99.90
12771;DHT22;6449;47.666;9.160;2022-12-07T06:21:10;2.70;99.90
12771;DHT22;6449;47.666;9.160;2022-12-07T06:26:04;2.80;99.90
12771;DHT22;6449;47.666;9.160;2022-12-07T06:30:58;2.80;99.90
12771;DHT22;6449;47.666;9.160;2022-12-07T06:35:51;2.80;99.90
12771;DHT22;6449;47.666;9.160;2022-12-07T06:40:46;2.90;99.90
12771;DHT22;6449;47.666;9.160;2022-12-07T06:45:40;2.90;99.90
12771;DHT22;6449;47.666;9.160;2022-12-07T06:50:39;2.90;99.90
12771;DHT22;6449;47.666;9.160;2022-12-07T06:55:46;2.80;99.90
12771;DHT22;6449;47.666;9.160;2022-12-07T07:00:40;2.80;99.90
12771;DHT22;6449;47.666;9.160;2022-12-07T07:05:34;2.80;99.90
12771;DHT22;6449;47.666;9.160;2022-12-07T07:10:28;2.70;99.90
12771;DHT22;6449;47.666;9.160;2022-12-07T07:15:22;2.70;99.90
12771;DHT22;6449;47.666;9.160;2022-12-07T07:20:16;2.60;99.90
12771;DHT22;6449;47.666;9.160;2022-12-07T07:25:09;2.60;99.90
12771;DHT22;6449;47.666;9.160;2022-12-07T07:30:04;2.70;99.90
12771;DHT22;6449;47.666;9.160;2022-12-07T07:35:00;2.80;99.90
12771;DHT22;6449;47.666;9.160;2022-12-07T07:39:53;2.90;99.90
12771;DHT22;6449;47.666;9.160;2022-12-07T07:44:47;2.80;99.90
12771;DHT22;6449;47.666;9.160;2022-12-07T07:49:42;2.80;99.90
12771;DHT22;6449;47.666;9.160;2022-12-07T07:54:40;2.80;99.90
12771;DHT22;6449;47.666;9.160;2022-12-07T07:59:33;2.90;99.90
12771;DHT22;6449;47.666;9.160;2022-12-07T08:04:27;2.80;99.90
12771;DHT22;6449;47.666;9.160;2022-12-07T08:09:20;2.80;99.90
12771;DHT22;6449;47.666;9.160;2022-12-07T08:14:15;2.70;99.90
12771;DHT22;6449;47.666;9.160;2022-12-07T08:19:09;2.80;99.90
12771;DHT22;6449;47.666;9.160;2022-12-07T08:24:02;2.70;99.90
12771;DHT22;6449;47.666;9.160;2022-12-07T08:28:56;2.70;99.90
12771;DHT22;6449;47.666;9.160;2022-12-07T08:33:57;2.80;99.90
12771;DHT22;6449;47.666;9.160;2022-12-07T08:38:51;2.80;99.90
12771;DHT22;6449;47.666;9.160;2022-12-07T08:44:05;2.70;99.90
12771;DHT22;6449;47.666;9.160;2022-12-07T08:49:06;2.80;99.90
12771;DHT22;6449;47.666;9.160;2022-12-07T08:54:06;2.90;99.90
12771;DHT22;6449;47.666;9.160;2022-12-07T08:59:03;3.00;99.90
12771;DHT22;6449;47.666;9.160;2022-12-07T09:03:58;3.00;99.90
12771;DHT22;6449;47.666;9.160;2022-12-07T09:08:58;3.00;99.90
12771;DHT22;6449;47.666;9.160;2022-12-07T09:14:01;3.10;99.90
12771;DHT22;6449;47.666;9.160;2022-12-07T09:18:57;3.10;99.90
12771;DHT22;6449;47.666;9.160;2022-12-07T09:23:52;3.10;99.90
12771;DHT22;6449;47.666;9.160;2022-12-07T09:28:49;3.00;99.90
12771;DHT22;6449;47.666;9.160;2022-12-07T09:33:45;3.10;99.90
12771;DHT22;6449;47.666;9.160;2022-12-07T09:38:38;3.10;99.90
12771;DHT22;6449;47.666;9.160;2022-12-07T09:43:34;3.10;99.90
12771;DHT22;6449;47.666;9.160;2022-12-07T09:48:31;3.10;99.90
12771;DHT22;6449;47.666;9.160;2022-12-07T09:53:29;3.20;99.90
12771;DHT22;6449;47.666;9.160;2022-12-07T09:58:28;3.30;99.90
12771;DHT22;6449;47.666;9.160;2022-12-07T10:03:26;3.20;99.90
12771;DHT22;6449;47.666;9.160;2022-12-07T10:08:21;3.30;99.90
12771;DHT22;6449;47.666;9.160;2022-12-07T10:13:17;3.40;99.90
12771;DHT22;6449;47.666;9.160;2022-12-07T10:18:26;3.40;99.90
12771;DHT22;6449;47.666;9.160;2022-12-07T10:23:21;3.50;99.90
12771;DHT22;6449;47.666;9.160;2022-12-07T10:28:16;3.40;99.90
12771;DHT22;6449;47.666;9.160;2022-12-07T10:33:31;3.40;99.90
12771;DHT22;6449;47.666;9.160;2022-12-07T10:38:28;3.40;99.90
12771;DHT22;6449;47.666;9.160;2022-12-07T10:43:24;3.40;99.90
12771;DHT22;6449;47.666;9.160;2022-12-07T10:48:22;3.50;99.90
12771;DHT22;6449;47.666;9.160;2022-12-07T10:58:56;3.40;99.90
12771;DHT22;6449;47.666;9.160;2022-12-07T11:04:24;3.40;99.90
12771;DHT22;6449;47.666;9.160;2022-12-07T11:09:51;3.40;99.90
12771;DHT22;6449;47.666;9.160;2022-12-07T11:15:04;3.40;99.90
12771;DHT22;6449;47.666;9.160;2022-12-07T11:20:16;3.40;99.90
12771;DHT22;6449;47.666;9.160;2022-12-07T11:25:29;3.40;99.90
12771;DHT22;6449;47.666;9.160;2022-12-07T11:30:29;3.40;99.90
12771;DHT22;6449;47.666;9.160;2022-12-07T11:35:38;3.50;99.90
12771;DHT22;6449;47.666;9.160;2022-12-07T11:40:44;3.70;99.90
12771;DHT22;6449;47.666;9.160;2022-12-07T11:45:42;3.80;99.90
12771;DHT22;6449;47.666;9.160;2022-12-07T11:50:42;3.80;99.90
12771;DHT22;6449;47.666;9.160;2022-12-07T11:55:47;3.70;99.90
12771;DHT22;6449;47.666;9.160;2022-12-07T12:00:45;3.50;99.90
12771;DHT22;6449;47.666;9.160;2022-12-07T12:05:39;3.50;99.90
12771;DHT22;6449;47.666;9.160;2022-12-07T12:10:40;3.60;99.90
12771;DHT22;6449;47.666;9.160;2022-12-07T12:16:02;3.70;99.90
12771;DHT22;6449;47.666;9.160;2022-12-07T12:21:09;3.80;99.90
12771;DHT22;6449;47.666;9.160;2022-12-07T12:26:17;3.80;99.90
12771;DHT22;6449;47.666;9.160;2022-12-07T12:31:15;3.80;99.90
12771;DHT22;6449;47.666;9.160;2022-12-07T12:36:25;3.80;99.90
12771;DHT22;6449;47.666;9.160;2022-12-07T12:41:54;3.90;99.90
12771;DHT22;6449;47.666;9.160;2022-12-07T12:47:01;3.90;99.90
12771;DHT22;6449;47.666;9.160;2022-12-07T12:51:58;3.90;99.90
12771;DHT22;6449;47.666;9.160;2022-12-07T12:57:00;3.90;99.90
12771;DHT22;6449;47.666;9.160;2022-12-07T13:02:19;3.90;99.90
12771;DHT22;6449;47.666;9.160;2022-12-07T13:13:01;4.00;99.90
12771;DHT22;6449;47.666;9.160;2022-12-07T13:18:02;4.00;99.90
12771;DHT22;6449;47.666;9.160;2022-12-07T13:23:18;4.00;99.90
12771;DHT22;6449;47.666;9.160;2022-12-07T13:28:18;4.00;99.90
12771;DHT22;6449;47.666;9.160;2022-12-07T13:33:14;4.00;99.90
12771;DHT22;6449;47.666;9.160;2022-12-07T13:38:22;4.00;99.90
12771;DHT22;6449;47.666;9.160;2022-12-07T13:43:21;4.00;99.90
12771;DHT22;6449;47.666;9.160;2022-12-07T13:48:18;4.00;99.90
12771;DHT22;6449;47.666;9.160;2022-12-07T13:53:17;4.10;99.90
12771;DHT22;6449;47.666;9.160;2022-12-07T13:58:10;4.00;99.90
12771;DHT22;6449;47.666;9.160;2022-12-07T14:03:26;4.10;99.90
12771;DHT22;6449;47.666;9.160;2022-12-07T14:08:23;4.00;99.90
12771;DHT22;6449;47.666;9.160;2022-12-07T14:13:29;4.00;99.90
12771;DHT22;6449;47.666;9.160;2022-12-07T14:18:29;4.00;99.90
12771;DHT22;6449;47.666;9.160;2022-12-07T14:23:29;4.00;99.90
12771;DHT22;6449;47.666;9.160;2022-12-07T14:28:26;4.00;99.90
12771;DHT22;6449;47.666;9.160;2022-12-07T14:33:21;3.90;99.90
12771;DHT22;6449;47.666;9.160;2022-12-07T14:38:18;3.90;99.90
12771;DHT22;6449;47.666;9.160;2022-12-07T14:43:13;3.90;99.90
12771;DHT22;6449;47.666;9.160;2022-12-07T14:48:11;3.90;99.90
12771;DHT22;6449;47.666;9.160;2022-12-07T14:53:30;3.90;99.90
12771;DHT22;6449;47.666;9.160;2022-12-07T14:58:28;3.90;99.90
12771;DHT22;6449;47.666;9.160;2022-12-07T15:03:21;3.90;99.90
12771;DHT22;6449;47.666;9.160;2022-12-07T15:08:15;3.80;99.90
12771;DHT22;6449;47.666;9.160;2022-12-07T15:13:10;3.80;99.90
12771;DHT22;6449;47.666;9.160;2022-12-07T15:18:22;3.80;99.90
12771;DHT22;6449;47.666;9.160;2022-12-07T15:23:16;3.80;99.90
12771;DHT22;6449;47.666;9.160;2022-12-07T15:28:12;3.70;99.90
12771;DHT22;6449;47.666;9.160;2022-12-07T15:33:08;3.70;99.90
12771;DHT22;6449;47.666;9.160;2022-12-07T15:38:06;3.70;99.90
12771;DHT22;6449;47.666;9.160;2022-12-07T15:43:00;3.70;99.90
12771;DHT22;6449;47.666;9.160;2022-12-07T15:47:54;3.60;99.90
12771;DHT22;6449;47.666;9.160;2022-12-07T15:53:08;3.50;99.90
12771;DHT22;6449;47.666;9.160;2022-12-07T15:58:02;3.40;99.90
12771;DHT22;6449;47.666;9.160;2022-12-07T16:02:57;3.40;99.90
12771;DHT22;6449;47.666;9.160;2022-12-07T16:07:50;3.40;99.90
12771;DHT22;6449;47.666;9.160;2022-12-07T16:12:44;3.40;99.90
12771;DHT22;6449;47.666;9.160;2022-12-07T16:17:37;3.30;99.90
12771;DHT22;6449;47.666;9.160;2022-12-07T16:22:32;3.20;99.90
12771;DHT22;6449;47.666;9.160;2022-12-07T16:27:26;3.20;99.90
12771;DHT22;6449;47.666;9.160;2022-12-07T16:32:19;3.10;99.90
12771;DHT22;6449;47.666;9.160;2022-12-07T16:37:13;3.10;99.90
12771;DHT22;6449;47.666;9.160;2022-12-07T16:42:08;3.10;99.90
12771;DHT22;6449;47.666;9.160;2022-12-07T16:47:01;3.10;99.90
12771;DHT22;6449;47.666;9.160;2022-12-07T16:57:44;3.10;99.90
12771;DHT22;6449;47.666;9.160;2022-12-07T17:02:37;3.00;99.90
12771;DHT22;6449;47.666;9.160;2022-12-07T17:07:30;3.00;99.90
12771;DHT22;6449;47.666;9.160;2022-12-07T17:12:27;3.00;99.90
12771;DHT22;6449;47.666;9.160;2022-12-07T17:17:22;3.00;99.90
12771;DHT22;6449;47.666;9.160;2022-12-07T17:22:16;2.90;99.90
12771;DHT22;6449;47.666;9.160;2022-12-07T17:27:10;2.90;99.90
12771;DHT22;6449;47.666;9.160;2022-12-07T17:32:04;2.80;99.90
12771;DHT22;6449;47.666;9.160;2022-12-07T17:36:59;2.80;99.90
12771;DHT22;6449;47.666;9.160;2022-12-07T17:41:54;2.80;99.90
12771;DHT22;6449;47.666;9.160;2022-12-07T17:47:19;2.90;99.90
12771;DHT22;6449;47.666;9.160;2022-12-07T17:52:14;2.90;99.90
12771;DHT22;6449;47.666;9.160;2022-12-07T17:57:25;2.90;99.90
12771;DHT22;6449;47.666;9.160;2022-12-07T18:02:19;2.90;99.90
12771;DHT22;6449;47.666;9.160;2022-12-07T18:07:14;2.90;99.90
12771;DHT22;6449;47.666;9.160;2022-12-07T18:12:08;2.80;99.90
12771;DHT22;6449;47.666;9.160;2022-12-07T18:17:02;2.70;99.90
12771;DHT22;6449;47.666;9.160;2022-12-07T18:21:56;2.60;99.90
12771;DHT22;6449;47.666;9.160;2022-12-07T18:26:52;2.60;99.90
12771;DHT22;6449;47.666;9.160;2022-12-07T18:31:51;2.70;99.90
12771;DHT22;6449;47.666;9.160;2022-12-07T18:36:48;2.70;99.90
12771;DHT22;6449;47.666;9.160;2022-12-07T18:41:43;2.80;99.90
12771;DHT22;6449;47.666;9.160;2022-12-07T18:46:40;2.70;99.90
12771;DHT22;6449;47.666;9.160;2022-12-07T18:51:34;2.60;99.90
12771;DHT22;6449;47.666;9.160;2022-12-07T18:56:27;2.50;99.90
12771;DHT22;6449;47.666;9.160;2022-12-07T19:01:22;2.50;99.90
12771;DHT22;6449;47.666;9.160;2022-12-07T19:06:17;2.50;99.90
12771;DHT22;6449;47.666;9.160;2022-12-07T19:11:23;2.50;99.90
12771;DHT22;6449;47.666;9.160;2022-12-07T19:16:40;2.60;99.90
12771;DHT22;6449;47.666;9.160;2022-12-07T19:21:41;2.50;99.90
12771;DHT22;6449;47.666;9.160;2022-12-07T19:26:34;2.40;99.90
12771;DHT22;6449;47.666;9.160;2022-12-07T19:31:28;2.40;99.90
12771;DHT22;6449;47.666;9.160;2022-12-07T19:36:22;2.20;99.90
12771;DHT22;6449;47.666;9.160;2022-12-07T19:41:20;2.20;99.90
12771;DHT22;6449;47.666;9.160;2022-12-07T19:46:26;2.20;99.90
12771;DHT22;6449;47.666;9.160;2022-12-07T19:51:21;2.30;99.90
12771;DHT22;6449;47.666;9.160;2022-12-07T19:56:16;2.40;99.90
12771;DHT22;6449;47.666;9.160;2022-12-07T20:01:23;2.10;99.90
12771;DHT22;6449;47.666;9.160;2022-12-07T20:13:53;1.80;99.90
12771;DHT22;6449;47.666;9.160;2022-12-07T20:26:20;2.00;99.90
12771;DHT22;6449;47.666;9.160;2022-12-07T20:31:28;2.00;99.90
12771;DHT22;6449;47.666;9.160;2022-12-07T20:36:21;1.70;99.90
12771;DHT22;6449;47.666;9.160;2022-12-07T20:41:20;1.40;99.90
12771;DHT22;6449;47.666;9.160;2022-12-07T20:46:31;1.40;99.90
12771;DHT22;6449;47.666;9.160;2022-12-07T20:51:24;1.40;99.90
12771;DHT22;6449;47.666;9.160;2022-12-07T20:56:23;1.60;99.90
12771;DHT22;6449;47.666;9.160;2022-12-07T21:01:19;1.80;99.90
12771;DHT22;6449;47.666;9.160;2022-12-07T21:06:13;1.90;99.90
12771;DHT22;6449;47.666;9.160;2022-12-07T21:11:08;2.00;99.90
12771;DHT22;6449;47.666;9.160;2022-12-07T21:16:08;1.90;99.90
12771;DHT22;6449;47.666;9.160;2022-12-07T21:21:03;1.90;99.90
12771;DHT22;6449;47.666;9.160;2022-12-07T21:26:00;1.90;99.90
12771;DHT22;6449;47.666;9.160;2022-12-07T21:30:57;1.90;99.90
12771;DHT22;6449;47.666;9.160;2022-12-07T21:36:08;1.80;99.90
12771;DHT22;6449;47.666;9.160;2022-12-07T21:41:10;1.80;99.90
12771;DHT22;6449;47.666;9.160;2022-12-07T21:46:05;1.80;99.90
12771;DHT22;6449;47.666;9.160;2022-12-07T21:51:04;1.90;99.90
12771;DHT22;6449;47.666;9.160;2022-12-07T21:56:00;1.90;99.90
12771;DHT22;6449;47.666;9.160;2022-12-07T22:00:54;1.70;99.90
12771;DHT22;6449;47.666;9.160;2022-12-07T22:05:48;1.80;99.90
12771;DHT22;6449;47.666;9.160;2022-12-07T22:10:44;1.80;99.90
12771;DHT22;6449;47.666;9.160;2022-12-07T22:15:39;1.80;99.90
12771;DHT22;6449;47.666;9.160;2022-12-07T22:20:33;1.70;99.90
12771;DHT22;6449;47.666;9.160;2022-12-07T22:25:26;1.80;99.90
12771;DHT22;6449;47.666;9.160;2022-12-07T22:30:21;1.90;99.90
12771;DHT22;6449;47.666;9.160;2022-12-07T22:35:15;2.00;99.90
12771;DHT22;6449;47.666;9.160;2022-12-07T22:40:09;2.10;99.90
12771;DHT22;6449;47.666;9.160;2022-12-07T22:45:04;2.00;99.90
12771;DHT22;6449;47.666;9.160;2022-12-07T22:50:00;2.00;99.90
12771;DHT22;6449;47.666;9.160;2022-12-07T22:54:56;2.00;99.90
12771;DHT22;6449;47.666;9.160;2022-12-07T22:59:49;2.00;99.90
12771;DHT22;6449;47.666;9.160;2022-12-07T23:04:42;1.90;99.90
12771;DHT22;6449;47.666;9.160;2022-12-07T23:09:37;1.70;99.90
12771;DHT22;6449;47.666;9.160;2022-12-07T23:14:32;1.70;99.90
12771;DHT22;6449;47.666;9.160;2022-12-07T23:19:28;1.80;99.90
12771;DHT22;6449;47.666;9.160;2022-12-07T23:24:21;1.70;99.90
12771;DHT22;6449;47.666;9.160;2022-12-07T23:29:16;1.60;99.90
12771;DHT22;6449;47.666;9.160;2022-12-07T23:34:10;1.50;99.90
12771;DHT22;6449;47.666;9.160;2022-12-07T23:39:03;1.60;99.90
12771;DHT22;6449;47.666;9.160;2022-12-07T23:43:58;1.70;99.90
12771;DHT22;6449;47.666;9.160;2022-12-07T23:48:55;1.80;99.90
12771;DHT22;6449;47.666;9.160;2022-12-07T23:53:50;1.70;99.90
12771;DHT22;6449;47.666;9.160;2022-12-07T23:58:45;1.70;99.90
